Time;durP1;ratioP1;P1;durP2;ratioP2;P2;SDS_P1;SDS_P2;PMS_P1;PMS_P2;Temp;Humidity;BMP_temperature;BMP_pressure;BME280_temperature;BME280_humidity;BME280_pressure;Samples;Min_cycle;Max_cycle;Signal;HPM_P1;HPM_P2
2022/05/29 00:00:28;;;;;;;1.50;0.50;;;11.10;80.40;;;;;;2090812;28;20085;-94
2022/05/29 00:01:49;;;;;;;1.67;0.70;;;11.20;80.50;;;;;;2081467;28;20034;-94
2022/05/29 00:03:08;;;;;;;1.85;0.60;;;11.20;80.40;;;;;;2085630;28;20021;-93
2022/05/29 00:04:27;;;;;;;1.75;0.47;;;11.20;80.40;;;;;;2083866;28;20025;-93
2022/05/29 00:05:49;;;;;;;0.82;0.40;;;11.20;80.50;;;;;;2090504;28;20045;-93
2022/05/29 00:07:14;;;;;;;2.90;0.65;;;11.20;80.50;;;;;;2093846;28;20063;-93
2022/05/29 00:08:38;;;;;;;1.58;0.60;;;11.20;80.70;;;;;;2090776;28;20045;-93
2022/05/29 00:09:57;;;;;;;3.15;0.60;;;11.20;80.60;;;;;;2091732;28;20036;-93
2022/05/29 00:11:16;;;;;;;2.65;0.70;;;11.10;80.60;;;;;;2087569;28;20123;-93
2022/05/29 00:12:36;;;;;;;2.83;0.80;;;11.10;80.70;;;;;;2075272;28;20064;-93
2022/05/29 00:14:00;;;;;;;2.67;0.50;;;11.10;80.70;;;;;;2092304;28;20064;-93
2022/05/29 00:15:19;;;;;;;2.47;0.82;;;11.10;80.80;;;;;;2096595;28;20029;-94
2022/05/29 00:16:38;;;;;;;3.08;0.80;;;11.10;80.90;;;;;;2081406;28;20038;-93
2022/05/29 00:17:58;;;;;;;1.38;0.50;;;11.10;81.00;;;;;;2090239;28;20025;-94
2022/05/29 00:19:17;;;;;;;1.33;0.50;;;11.10;81.10;;;;;;2086931;28;20490;-93
2022/05/29 00:20:39;;;;;;;2.00;0.63;;;11.10;81.10;;;;;;2084824;28;20029;-93
2022/05/29 00:21:58;;;;;;;1.83;0.68;;;11.10;81.10;;;;;;2091072;28;20029;-93
2022/05/29 00:23:18;;;;;;;2.10;0.70;;;11.10;81.20;;;;;;2088211;28;20025;-93
2022/05/29 00:24:39;;;;;;;3.28;0.70;;;11.10;81.20;;;;;;2090013;28;20025;-93
2022/05/29 00:25:58;;;;;;;4.13;0.60;;;11.00;81.20;;;;;;2087286;28;20540;-93
2022/05/29 00:27:18;;;;;;;1.08;0.50;;;11.00;81.40;;;;;;2077798;28;20029;-93
2022/05/29 00:28:37;;;;;;;1.83;0.50;;;11.00;81.40;;;;;;2086416;28;20037;-93
2022/05/29 00:29:56;;;;;;;2.22;0.50;;;11.00;82.10;;;;;;2086840;28;20176;-94
2022/05/29 00:31:16;;;;;;;1.15;0.55;;;11.00;81.60;;;;;;2085594;28;20497;-93
2022/05/29 00:32:35;;;;;;;2.17;0.60;;;11.00;81.70;;;;;;2084796;28;20036;-93
2022/05/29 00:33:54;;;;;;;3.13;0.70;;;11.10;81.80;;;;;;2088797;28;20052;-93
2022/05/29 00:35:13;;;;;;;1.63;0.70;;;11.00;81.80;;;;;;2076482;28;20085;-93
2022/05/29 00:36:39;;;;;;;2.08;0.60;;;11.00;81.90;;;;;;2092497;28;20033;-94
2022/05/29 00:37:59;;;;;;;1.85;0.50;;;11.10;82.00;;;;;;2099764;28;20029;-93
2022/05/29 00:39:18;;;;;;;1.90;0.60;;;11.00;82.10;;;;;;2079690;28;20497;-93
2022/05/29 00:41:10;;;;;;;2.72;0.55;;;11.00;82.10;;;;;;2092034;28;20032;-93
2022/05/29 00:42:30;;;;;;;2.60;0.60;;;11.00;82.20;;;;;;2099303;28;20036;-95
2022/05/29 00:44:12;;;;;;;3.28;0.80;;;11.00;82.20;;;;;;2086263;28;20033;-93
2022/05/29 00:45:45;;;;;;;1.77;0.57;;;10.90;82.20;;;;;;2095355;28;20062;-95
2022/05/29 00:47:12;;;;;;;2.67;0.70;;;10.90;82.50;;;;;;2097815;28;20032;-95
2022/05/29 00:48:31;;;;;;;1.08;0.40;;;10.90;82.60;;;;;;2098145;28;20036;-95
2022/05/29 00:49:51;;;;;;;2.35;0.50;;;10.90;82.80;;;;;;2089552;28;20033;-96
2022/05/29 00:51:12;;;;;;;2.67;0.70;;;10.90;83.10;;;;;;2085706;28;20108;-94
2022/05/29 00:52:31;;;;;;;2.55;0.60;;;10.80;83.20;;;;;;2085112;28;20068;-95
2022/05/29 00:53:51;;;;;;;1.63;0.60;;;10.80;83.40;;;;;;2085442;28;20040;-94
2022/05/29 00:55:19;;;;;;;3.45;0.70;;;10.80;83.70;;;;;;2083038;28;20049;-95
2022/05/29 00:56:39;;;;;;;2.15;0.90;;;10.80;84.00;;;;;;2087608;28;20026;-95
2022/05/29 00:58:02;;;;;;;1.40;0.50;;;10.80;84.10;;;;;;2085847;28;20025;-95
2022/05/29 00:59:25;;;;;;;2.17;0.70;;;10.80;84.20;;;;;;2092093;28;20119;-94
2022/05/29 01:00:45;;;;;;;2.47;0.70;;;10.80;84.30;;;;;;2093615;28;20021;-95
2022/05/29 01:02:04;;;;;;;1.67;0.50;;;10.70;84.40;;;;;;2101154;28;20400;-95
2022/05/29 01:03:24;;;;;;;1.88;0.68;;;10.70;84.60;;;;;;2085307;28;20453;-94
2022/05/29 01:04:44;;;;;;;1.92;0.70;;;10.70;84.80;;;;;;2099296;28;20123;-96
2022/05/29 01:06:03;;;;;;;2.90;0.70;;;10.70;85.00;;;;;;2084413;28;20041;-95
2022/05/29 01:07:25;;;;;;;1.38;0.52;;;10.70;85.20;;;;;;2091731;28;20032;-95
2022/05/29 01:08:44;;;;;;;1.83;0.60;;;10.70;85.30;;;;;;2088283;28;20033;-95
2022/05/29 01:10:06;;;;;;;2.90;0.60;;;10.70;85.30;;;;;;2085057;28;20037;-96
2022/05/29 01:11:55;;;;;;;3.60;0.80;;;10.60;85.40;;;;;;2091223;28;20025;-95
2022/05/29 01:13:17;;;;;;;3.28;0.60;;;10.60;85.70;;;;;;2092189;28;20037;-96
2022/05/29 01:15:03;;;;;;;1.95;0.60;;;10.60;85.70;;;;;;2099146;28;20119;-95
2022/05/29 01:16:35;;;;;;;2.90;0.55;;;10.60;85.80;;;;;;2099307;28;20032;-95
2022/05/29 01:18:07;;;;;;;2.35;0.50;;;10.60;85.80;;;;;;2096067;28;20517;-96
2022/05/29 01:19:46;;;;;;;1.30;0.50;;;10.60;85.90;;;;;;2103732;28;20024;-95
2022/05/29 01:21:27;;;;;;;1.63;0.65;;;10.60;86.00;;;;;;2096963;28;20493;-96
2022/05/29 01:23:08;;;;;;;1.92;0.70;;;10.60;86.00;;;;;;2096817;28;20052;-96
2022/05/29 01:24:45;;;;;;;1.38;0.52;;;10.60;86.00;;;;;;2096181;28;20021;-96
2022/05/29 01:26:36;;;;;;;1.73;0.70;;;10.60;86.00;;;;;;2102863;28;20020;-96
2022/05/29 01:28:20;;;;;;;1.98;0.60;;;10.60;86.10;;;;;;2106325;28;20068;-95
2022/05/29 01:29:51;;;;;;;2.05;0.70;;;10.60;86.10;;;;;;2098772;28;20024;-95
2022/05/29 01:31:33;;;;;;;1.05;0.57;;;10.60;86.20;;;;;;2110259;28;20055;-95
2022/05/29 01:33:05;;;;;;;1.50;0.60;;;10.60;86.30;;;;;;2099903;28;20029;-96
2022/05/29 01:34:30;;;;;;;1.40;0.60;;;10.60;86.50;;;;;;2093908;28;20032;-95
2022/05/29 01:35:59;;;;;;;1.67;0.60;;;10.50;86.50;;;;;;2096622;28;20041;-95
2022/05/29 01:37:29;;;;;;;2.38;0.80;;;10.50;86.60;;;;;;2097364;28;20460;-95
2022/05/29 01:38:58;;;;;;;2.90;0.95;;;10.50;86.70;;;;;;2095651;28;20069;-95
2022/05/29 01:40:29;;;;;;;2.38;0.70;;;10.50;86.90;;;;;;2094857;28;20024;-96
2022/05/29 01:42:03;;;;;;;2.20;0.70;;;10.60;87.00;;;;;;2097521;28;20033;-95
2022/05/29 01:43:36;;;;;;;1.67;0.60;;;10.60;87.10;;;;;;2098757;28;20103;-95
2022/05/29 01:45:16;;;;;;;0.82;0.60;;;10.60;87.10;;;;;;2090681;28;20041;-95
2022/05/29 01:46:36;;;;;;;2.33;0.90;;;10.60;87.10;;;;;;2092117;28;20028;-96
2022/05/29 01:48:11;;;;;;;3.90;1.00;;;10.60;87.10;;;;;;2090797;28;20283;-95
2022/05/29 01:49:40;;;;;;;2.58;0.70;;;10.60;87.20;;;;;;2094806;28;20420;-96
2022/05/29 01:51:11;;;;;;;0.93;0.57;;;10.60;87.20;;;;;;2096653;28;20028;-96
2022/05/29 01:52:48;;;;;;;1.77;0.65;;;10.60;87.20;;;;;;2103335;28;20036;-96
2022/05/29 01:54:15;;;;;;;3.20;0.80;;;10.60;87.30;;;;;;2098055;28;20464;-96
2022/05/29 01:55:44;;;;;;;1.65;0.70;;;10.60;87.30;;;;;;2095887;28;20044;-96
2022/05/29 01:57:14;;;;;;;1.45;0.63;;;10.60;87.30;;;;;;2093902;28;20608;-96
2022/05/29 01:58:44;;;;;;;2.15;0.85;;;10.60;87.40;;;;;;2094827;28;20481;-96
2022/05/29 02:00:18;;;;;;;3.30;0.77;;;10.60;87.40;;;;;;2090429;28;20025;-96
2022/05/29 02:01:43;;;;;;;2.60;1.00;;;10.60;87.60;;;;;;2093008;28;20041;-96
2022/05/29 02:03:09;;;;;;;3.00;0.80;;;10.60;87.40;;;;;;2096267;28;20060;-96
2022/05/29 02:04:32;;;;;;;2.78;0.70;;;10.60;87.50;;;;;;2095600;28;20489;-96
2022/05/29 02:05:56;;;;;;;2.45;0.90;;;10.60;87.60;;;;;;2095477;28;20032;-95
2022/05/29 02:09:00;;;;;;;;;;;10.60;87.60;;;;;;2100235;28;20036;-96
2022/05/29 02:10:42;;;;;;;2.33;0.80;;;10.50;87.40;;;;;;2100744;28;19904;-96
2022/05/29 02:12:04;;;;;;;2.03;0.80;;;10.50;87.40;;;;;;2105513;28;20122;-96
2022/05/29 02:13:26;;;;;;;2.40;0.90;;;10.50;87.40;;;;;;2086285;28;20510;-96
2022/05/29 02:15:06;;;;;;;2.13;0.75;;;10.50;87.50;;;;;;2096642;28;20033;-94
2022/05/29 02:16:43;;;;;;;3.28;1.00;;;10.50;87.60;;;;;;2098098;28;20025;-96
2022/05/29 02:18:10;;;;;;;2.90;1.00;;;10.50;87.70;;;;;;2095297;28;20036;-95
2022/05/29 02:19:34;;;;;;;1.65;0.80;;;10.50;87.80;;;;;;2093554;28;20044;-96
2022/05/29 02:20:58;;;;;;;2.67;0.80;;;10.50;87.80;;;;;;2097026;28;20032;-95
2022/05/29 02:22:27;;;;;;;2.53;0.90;;;10.50;88.00;;;;;;2098470;28;20025;-96
2022/05/29 02:23:51;;;;;;;1.90;0.82;;;10.40;88.00;;;;;;2103102;28;20016;-95
2022/05/29 02:25:17;;;;;;;2.92;0.90;;;10.40;88.00;;;;;;2100064;28;20025;-94
2022/05/29 02:27:06;;;;;;;3.45;1.50;;;10.50;88.10;;;;;;2098210;28;20021;-96
2022/05/29 02:28:32;;;;;;;2.45;0.80;;;10.50;88.20;;;;;;2095344;28;20100;-95
2022/05/29 02:29:54;;;;;;;3.67;0.98;;;10.40;88.10;;;;;;2100040;28;20036;-96
2022/05/29 02:31:37;;;;;;;4.35;1.17;;;10.50;88.10;;;;;;2096616;28;20111;-95
2022/05/29 02:33:23;;;;;;;1.75;0.80;;;10.40;88.20;;;;;;2100064;28;20056;-96
2022/05/29 02:34:49;;;;;;;2.17;0.80;;;10.40;88.20;;;;;;2098706;28;20036;-96
2022/05/29 02:36:29;;;;;;;2.80;0.80;;;10.30;88.20;;;;;;2096013;28;20033;-94
2022/05/29 02:38:18;;;;;;;2.88;1.20;;;10.30;88.30;;;;;;2105885;28;20032;-94
2022/05/29 02:40:07;;;;;;;2.65;0.82;;;10.40;88.40;;;;;;2104475;28;20035;-95
2022/05/29 02:41:51;;;;;;;0.88;0.55;;;10.30;88.30;;;;;;2101095;28;20021;-96
2022/05/29 02:43:25;;;;;;;3.28;0.80;;;10.30;88.40;;;;;;2101128;28;20025;-94
2022/05/29 02:45:05;;;;;;;2.28;0.77;;;10.40;88.40;;;;;;2096098;28;20089;-95
2022/05/29 02:46:39;;;;;;;1.95;0.80;;;10.30;88.40;;;;;;2099813;28;20412;-95
2022/05/29 02:48:29;;;;;;;3.15;0.90;;;10.30;88.50;;;;;;2099006;28;20513;-95
2022/05/29 02:50:02;;;;;;;2.05;0.70;;;10.30;88.50;;;;;;2101925;28;20029;-96
2022/05/29 02:51:30;;;;;;;1.10;0.73;;;10.30;88.50;;;;;;2102783;28;20016;-94
2022/05/29 02:52:52;;;;;;;2.38;0.80;;;10.30;88.50;;;;;;2096384;28;20118;-94
2022/05/29 02:54:13;;;;;;;2.30;0.70;;;10.30;88.60;;;;;;2102545;28;20033;-95
2022/05/29 02:55:33;;;;;;;3.55;0.70;;;10.30;88.70;;;;;;2103185;28;20037;-96
2022/05/29 02:56:53;;;;;;;2.42;0.60;;;10.30;88.80;;;;;;2089384;28;20041;-95
2022/05/29 02:58:23;;;;;;;2.30;0.80;;;10.30;88.90;;;;;;2084273;28;20097;-96
2022/05/29 02:59:49;;;;;;;2.08;0.80;;;10.30;89.00;;;;;;2102385;28;20064;-96
2022/05/29 03:01:20;;;;;;;1.65;0.73;;;10.30;89.10;;;;;;2099563;28;20404;-95
2022/05/29 03:02:46;;;;;;;1.65;0.63;;;10.30;89.10;;;;;;2100207;28;20028;-95
2022/05/29 03:04:28;;;;;;;3.35;0.85;;;10.30;89.20;;;;;;2097514;28;20300;-95
2022/05/29 03:06:13;;;;;;;1.88;0.80;;;10.30;89.20;;;;;;2100157;28;20044;-96
2022/05/29 03:08:01;;;;;;;1.80;0.75;;;10.30;89.30;;;;;;2102027;28;20036;-96
2022/05/29 03:09:31;;;;;;;1.65;0.68;;;10.20;89.30;;;;;;2100680;28;20040;-96
2022/05/29 03:11:09;;;;;;;3.80;0.63;;;10.20;89.40;;;;;;2100337;28;20032;-96
2022/05/29 03:12:37;;;;;;;1.55;0.70;;;10.20;89.50;;;;;;2101101;28;20032;-95
2022/05/29 03:14:12;;;;;;;1.52;0.70;;;10.20;89.50;;;;;;2099073;28;20037;-96
2022/05/29 03:15:43;;;;;;;2.35;0.75;;;10.20;89.60;;;;;;2098196;28;20029;-96
2022/05/29 03:17:09;;;;;;;;;;;10.20;89.60;;;;;;2099055;28;20044;-95
2022/05/29 03:19:10;;;;;;;0.50;0.43;;;10.10;89.40;;;;;;2090748;28;20000;-96
2022/05/29 03:20:29;;;;;;;2.35;0.70;;;10.10;89.40;;;;;;2094572;28;20028;-95
2022/05/29 03:22:35;;;;;;;2.03;0.50;;;10.10;89.30;;;;;;2095066;28;20459;-96
2022/05/29 03:24:06;;;;;;;1.75;0.60;;;10.10;89.50;;;;;;2081875;28;20093;-96
2022/05/29 03:25:33;;;;;;;;;;;10.10;89.50;;;;;;2073187;28;20037;-96
2022/05/29 03:27:18;;;;;;;2.15;0.60;;;10.10;89.40;;;;;;2093773;28;19920;-95
2022/05/29 03:28:47;;;;;;;1.23;0.50;;;10.10;89.30;;;;;;2094549;28;20041;-95
2022/05/29 03:30:14;;;;;;;1.70;0.55;;;10.10;89.40;;;;;;2091266;28;20021;-96
2022/05/29 03:31:35;;;;;;;2.25;0.50;;;10.20;89.50;;;;;;2104705;28;20032;-96
2022/05/29 03:32:58;;;;;;;1.98;0.50;;;10.10;89.60;;;;;;2097055;28;20060;-95
2022/05/29 03:34:20;;;;;;;2.88;0.60;;;10.10;89.70;;;;;;2098962;28;20044;-96
2022/05/29 03:36:11;;;;;;;1.45;0.75;;;10.10;89.90;;;;;;2087705;28;20124;-95
2022/05/29 03:37:31;;;;;;;1.63;0.90;;;10.10;90.00;;;;;;2099816;28;20119;-96
2022/05/29 03:38:50;;;;;;;2.38;0.65;;;10.10;90.00;;;;;;2096395;28;20014;-96
2022/05/29 03:40:11;;;;;;;3.00;0.70;;;10.10;90.00;;;;;;2104390;28;20036;-95
2022/05/29 03:41:39;;;;;;;1.92;0.68;;;10.10;90.00;;;;;;2093350;28;20033;-95
2022/05/29 03:42:59;;;;;;;2.40;0.75;;;10.20;90.10;;;;;;2098516;28;20033;-95
2022/05/29 03:44:21;;;;;;;2.15;0.60;;;10.20;90.10;;;;;;2101932;28;20024;-95
2022/05/29 03:45:40;;;;;;;2.00;0.90;;;10.20;90.10;;;;;;2097902;28;20032;-96
2022/05/29 03:46:59;;;;;;;2.47;0.60;;;10.20;90.20;;;;;;2098224;28;20483;-96
2022/05/29 03:48:19;;;;;;;3.60;0.98;;;10.20;90.20;;;;;;2088881;28;20068;-95
2022/05/29 03:49:38;;;;;;;1.02;0.50;;;10.20;90.30;;;;;;2086053;28;20033;-96
2022/05/29 03:51:06;;;;;;;1.75;0.70;;;10.30;90.30;;;;;;2090334;28;20420;-96
2022/05/29 03:52:25;;;;;;;1.25;0.63;;;10.30;90.30;;;;;;2101055;28;20032;-96
2022/05/29 03:53:45;;;;;;;1.75;0.75;;;10.30;90.30;;;;;;2092394;28;20033;-96
2022/05/29 03:55:04;;;;;;;2.80;1.00;;;10.30;90.30;;;;;;2096863;28;20024;-96
2022/05/29 03:56:23;;;;;;;3.17;0.85;;;10.30;90.30;;;;;;2104082;28;20029;-96
2022/05/29 03:57:43;;;;;;;1.27;0.60;;;10.30;90.30;;;;;;2091890;28;20032;-96
2022/05/29 03:59:03;;;;;;;2.60;0.70;;;10.30;90.30;;;;;;2090827;28;20037;-96
2022/05/29 04:00:24;;;;;;;1.45;0.63;;;10.30;90.40;;;;;;2086150;28;20045;-95
2022/05/29 04:01:44;;;;;;;1.40;0.70;;;10.40;90.40;;;;;;2090780;28;20115;-95
2022/05/29 04:03:03;;;;;;;1.60;0.63;;;10.40;90.40;;;;;;2090150;28;20478;-95
2022/05/29 04:04:23;;;;;;;2.17;0.70;;;10.40;90.40;;;;;;2079706;28;20536;-96
2022/05/29 04:05:43;;;;;;;1.52;0.70;;;10.40;90.40;;;;;;2084510;28;20041;-95
2022/05/29 04:07:02;;;;;;;1.92;0.70;;;10.50;90.40;;;;;;2080703;28;20065;-96
2022/05/29 04:13:21;;;;;;;2.30;0.77;;;10.60;90.20;;;;;;2100420;28;20036;-95
2022/05/29 04:14:43;;;;;;;1.33;0.77;;;10.60;90.20;;;;;;2099557;28;20100;-96
2022/05/29 04:16:02;;;;;;;2.05;0.85;;;10.70;90.20;;;;;;2096785;28;20032;-96
2022/05/29 04:17:21;;;;;;;2.10;0.70;;;10.80;90.20;;;;;;2089717;28;20037;-96
2022/05/29 04:18:41;;;;;;;3.17;0.90;;;10.70;90.10;;;;;;2075816;28;20038;-94
2022/05/29 04:20:00;;;;;;;2.28;0.98;;;10.80;90.20;;;;;;2084806;28;20025;-95
2022/05/29 04:21:20;;;;;;;1.30;0.80;;;10.80;90.10;;;;;;2096511;28;20020;-95
2022/05/29 04:22:39;;;;;;;1.10;0.60;;;10.80;90.10;;;;;;2088955;28;20025;-96
2022/05/29 04:23:58;;;;;;;1.98;0.80;;;10.80;90.10;;;;;;2085885;28;20467;-96
2022/05/29 04:25:18;;;;;;;3.15;1.00;;;10.80;90.20;;;;;;2088785;28;20040;-95
2022/05/29 04:26:37;;;;;;;3.60;1.00;;;10.80;90.10;;;;;;2088112;28;20037;-96
2022/05/29 04:27:57;;;;;;;2.58;0.90;;;10.80;90.20;;;;;;2096651;28;20484;-95
2022/05/29 04:29:17;;;;;;;2.97;0.90;;;10.80;90.20;;;;;;2089133;28;20029;-95
2022/05/29 04:30:37;;;;;;;;;;;10.70;90.20;;;;;;2090148;28;20695;-96
2022/05/29 04:33:37;;;;;;;3.13;1.10;;;10.70;90.30;;;;;;2096047;28;20432;-96
2022/05/29 04:34:57;;;;;;;1.80;0.80;;;10.60;90.20;;;;;;2096529;28;20055;-96
2022/05/29 04:36:16;;;;;;;2.90;0.80;;;10.70;90.30;;;;;;2095333;28;20025;-95
2022/05/29 04:37:35;;;;;;;1.52;0.80;;;10.60;90.30;;;;;;2088633;28;20029;-96
2022/05/29 04:38:55;;;;;;;2.13;0.82;;;10.60;90.30;;;;;;2080105;28;20065;-95
2022/05/29 04:40:15;;;;;;;1.80;0.80;;;10.60;90.40;;;;;;2069540;28;20033;-95
2022/05/29 04:41:34;;;;;;;2.13;0.73;;;10.60;90.40;;;;;;2088750;28;20037;-96
2022/05/29 04:42:54;;;;;;;1.95;0.70;;;10.60;90.40;;;;;;2080978;28;20745;-96
2022/05/29 04:44:13;;;;;;;2.33;0.82;;;10.50;90.50;;;;;;2094715;28;20037;-96
2022/05/29 04:45:33;;;;;;;3.03;0.98;;;10.50;90.50;;;;;;2086883;28;20041;-96
2022/05/29 04:46:52;;;;;;;1.70;0.70;;;10.50;90.50;;;;;;2100871;28;20036;-95
2022/05/29 04:48:13;;;;;;;2.75;0.90;;;10.40;90.60;;;;;;2083736;28;20045;-96
2022/05/29 04:49:35;;;;;;;4.45;0.93;;;10.40;90.60;;;;;;2094925;28;20036;-96
2022/05/29 04:50:59;;;;;;;2.53;0.70;;;10.50;90.60;;;;;;2091501;28;20041;-95
2022/05/29 04:52:19;;;;;;;2.53;0.80;;;10.40;90.60;;;;;;2094955;28;20041;-96
2022/05/29 04:53:38;;;;;;;0.90;0.60;;;10.50;90.60;;;;;;2087533;28;20036;-95
2022/05/29 04:54:57;;;;;;;2.63;0.70;;;10.50;90.60;;;;;;2088157;28;20045;-96
2022/05/29 04:56:16;;;;;;;2.53;0.98;;;10.50;90.60;;;;;;2087879;28;20025;-95
2022/05/29 04:57:36;;;;;;;3.85;1.00;;;10.50;90.60;;;;;;2100981;28;20036;-94
2022/05/29 04:58:55;;;;;;;2.63;0.80;;;10.50;90.60;;;;;;2099047;28;20504;-94
2022/05/29 05:00:14;;;;;;;1.20;0.75;;;10.50;90.60;;;;;;2084863;28;20053;-94
2022/05/29 05:01:34;;;;;;;2.25;0.85;;;10.50;90.70;;;;;;2088727;28;20024;-95
2022/05/29 05:02:53;;;;;;;3.38;0.63;;;10.50;90.70;;;;;;2091758;28;20569;-95
2022/05/29 05:04:12;;;;;;;3.00;0.80;;;10.50;90.70;;;;;;2078688;28;20056;-95
2022/05/29 05:05:32;;;;;;;1.50;0.70;;;10.50;90.70;;;;;;2079945;28;20483;-96
2022/05/29 05:06:55;;;;;;;4.18;0.85;;;10.50;90.70;;;;;;2085805;28;20456;-96
2022/05/29 05:08:15;;;;;;;1.17;0.70;;;10.50;90.70;;;;;;2089689;28;20029;-95
2022/05/29 05:09:34;;;;;;;2.53;0.80;;;10.50;90.70;;;;;;2086669;28;20056;-95
2022/05/29 05:10:53;;;;;;;2.97;0.70;;;10.50;90.70;;;;;;2088873;28;20064;-95
2022/05/29 05:12:13;;;;;;;2.42;0.73;;;10.60;90.70;;;;;;2087879;28;20025;-96
2022/05/29 05:13:32;;;;;;;2.90;0.90;;;10.60;90.70;;;;;;2087138;28;20061;-95
2022/05/29 05:14:51;;;;;;;2.60;0.77;;;10.60;90.70;;;;;;2088755;28;20029;-96
2022/05/29 05:16:11;;;;;;;1.90;0.57;;;10.60;90.70;;;;;;2088849;28;20025;-95
2022/05/29 05:17:31;;;;;;;1.98;0.70;;;10.60;90.70;;;;;;2088235;28;20049;-95
2022/05/29 05:18:50;;;;;;;2.63;0.70;;;10.60;90.70;;;;;;2093382;28;20028;-96
2022/05/29 05:20:09;;;;;;;3.08;0.75;;;10.70;90.80;;;;;;2096169;28;20485;-96
2022/05/29 05:21:29;;;;;;;1.80;0.50;;;10.70;90.80;;;;;;2080179;28;20025;-95
2022/05/29 05:22:51;;;;;;;1.83;0.70;;;10.70;90.70;;;;;;2090729;28;20029;-95
2022/05/29 05:24:11;;;;;;;2.50;0.60;;;10.80;90.80;;;;;;2096981;28;20052;-95
2022/05/29 05:25:30;;;;;;;1.48;0.70;;;10.80;90.80;;;;;;2094362;28;20036;-96
2022/05/29 05:26:49;;;;;;;3.40;0.82;;;10.80;90.80;;;;;;2095663;28;20036;-96
2022/05/29 05:28:09;;;;;;;1.42;0.60;;;10.80;90.70;;;;;;2091725;28;20029;-96
2022/05/29 05:29:28;;;;;;;2.33;0.60;;;10.80;90.70;;;;;;2090883;28;20029;-95
2022/05/29 05:30:48;;;;;;;2.35;0.70;;;10.90;90.80;;;;;;2085396;28;20037;-95
2022/05/29 05:32:08;;;;;;;2.92;0.63;;;10.90;90.80;;;;;;2083983;28;20068;-96
2022/05/29 05:33:28;;;;;;;2.20;0.55;;;10.90;90.80;;;;;;2094218;28;20044;-96
2022/05/29 05:34:48;;;;;;;1.85;0.60;;;10.90;90.70;;;;;;2088517;28;20033;-94
2022/05/29 05:36:07;;;;;;;2.78;0.85;;;10.90;90.70;;;;;;2089100;28;20405;-96
2022/05/29 05:37:26;;;;;;;1.73;0.70;;;10.90;90.80;;;;;;2085951;28;20025;-96
2022/05/29 05:38:46;;;;;;;2.95;0.70;;;10.90;90.80;;;;;;2080621;28;20034;-96
2022/05/29 05:40:10;;;;;;;2.53;0.80;;;10.90;90.80;;;;;;2088087;28;20016;-96
2022/05/29 05:41:30;;;;;;;1.67;0.70;;;10.90;90.80;;;;;;2097383;28;20423;-95
2022/05/29 05:42:50;;;;;;;2.05;0.80;;;10.90;90.80;;;;;;2098349;28;20484;-95
2022/05/29 05:44:09;;;;;;;1.98;0.80;;;10.90;90.90;;;;;;2092157;28;20021;-94
2022/05/29 05:45:28;;;;;;;1.35;0.60;;;10.90;90.90;;;;;;2083765;28;20065;-95
2022/05/29 05:46:50;;;;;;;2.00;0.75;;;10.80;90.90;;;;;;2086304;28;20040;-96
2022/05/29 05:48:09;;;;;;;2.67;0.60;;;10.80;91.00;;;;;;2093712;28;20025;-96
2022/05/29 05:49:29;;;;;;;1.20;0.63;;;10.80;91.00;;;;;;2096641;28;20032;-96
2022/05/29 05:50:48;;;;;;;1.42;0.60;;;10.90;91.00;;;;;;2090335;28;20474;-96
2022/05/29 05:52:08;;;;;;;2.28;0.50;;;10.90;91.00;;;;;;2087260;28;20028;-96
2022/05/29 05:53:27;;;;;;;2.35;0.73;;;10.90;91.00;;;;;;2087288;28;20029;-95
2022/05/29 05:54:47;;;;;;;2.58;0.60;;;10.90;91.00;;;;;;2087572;28;20053;-96
2022/05/29 05:56:09;;;;;;;1.88;0.70;;;10.90;91.00;;;;;;2090841;28;20037;-95
2022/05/29 05:57:28;;;;;;;2.03;0.70;;;10.90;91.00;;;;;;2098002;28;20028;-96
2022/05/29 05:58:47;;;;;;;1.98;0.70;;;11.00;91.00;;;;;;2090751;28;20036;-96
2022/05/29 06:00:14;;;;;;;1.05;0.60;;;11.00;91.00;;;;;;2094319;28;20099;-95
2022/05/29 06:01:33;;;;;;;1.60;0.65;;;11.00;91.00;;;;;;2092796;28;20037;-96
2022/05/29 06:02:52;;;;;;;2.28;0.60;;;11.10;91.00;;;;;;2081030;28;20030;-96
2022/05/29 06:04:12;;;;;;;2.35;0.70;;;11.10;90.90;;;;;;2077427;28;20033;-96
2022/05/29 06:05:31;;;;;;;3.22;0.70;;;11.10;90.90;;;;;;2088131;28;20060;-96
2022/05/29 06:06:50;;;;;;;3.90;0.75;;;11.10;90.90;;;;;;2080465;28;20049;-96
2022/05/29 06:08:10;;;;;;;2.55;0.82;;;11.20;90.90;;;;;;2089629;28;20040;-96
2022/05/29 06:09:29;;;;;;;1.00;0.60;;;11.20;91.00;;;;;;2094949;28;20024;-96
2022/05/29 06:10:48;;;;;;;3.08;0.80;;;11.20;90.90;;;;;;2092616;28;20040;-95
2022/05/29 06:12:08;;;;;;;2.10;0.60;;;11.20;90.90;;;;;;2088828;28;20041;-96
2022/05/29 06:13:29;;;;;;;1.42;0.60;;;11.20;90.90;;;;;;2091951;28;20037;-95
2022/05/29 06:14:48;;;;;;;3.15;0.80;;;11.20;91.00;;;;;;2088271;28;20068;-96
2022/05/29 06:16:09;;;;;;;1.13;0.55;;;11.20;91.00;;;;;;2083209;28;20049;-96
2022/05/29 06:17:28;;;;;;;1.13;0.50;;;11.30;91.00;;;;;;2100689;28;20041;-96
2022/05/29 06:18:48;;;;;;;1.65;0.60;;;11.30;90.90;;;;;;2096413;28;20032;-96
2022/05/29 06:20:08;;;;;;;1.52;0.70;;;11.30;90.90;;;;;;2093885;28;20033;-96
2022/05/29 06:21:27;;;;;;;3.50;0.68;;;11.40;90.90;;;;;;2098845;28;20110;-96
2022/05/29 06:22:46;;;;;;;3.30;0.63;;;11.40;90.90;;;;;;2084520;28;20034;-96
2022/05/29 06:24:06;;;;;;;1.40;0.45;;;11.50;90.90;;;;;;2087464;28;20041;-96
2022/05/29 06:25:26;;;;;;;1.48;0.60;;;11.50;90.80;;;;;;2100695;28;20016;-96
2022/05/29 06:26:45;;;;;;;1.60;0.60;;;11.50;90.70;;;;;;2100766;28;20033;-96
2022/05/29 06:28:05;;;;;;;1.50;0.47;;;11.50;90.70;;;;;;2096563;28;20032;-95
2022/05/29 06:29:25;;;;;;;1.67;0.70;;;11.60;90.70;;;;;;2094474;28;20111;-96
2022/05/29 06:30:45;;;;;;;1.23;0.60;;;11.60;90.60;;;;;;2092632;28;20497;-96
2022/05/29 06:32:08;;;;;;;1.52;0.55;;;11.60;90.60;;;;;;2086800;28;20029;-96
2022/05/29 06:33:29;;;;;;;1.52;0.90;;;11.70;90.60;;;;;;2094623;28;20559;-95
2022/05/29 06:34:48;;;;;;;;;;;11.70;90.60;;;;;;2090775;28;20029;-96
2022/05/29 06:36:11;;;;;;;2.95;0.70;;;11.70;90.60;;;;;;2093664;28;19920;-96
2022/05/29 06:37:31;;;;;;;2.47;0.45;;;11.70;90.50;;;;;;2102065;28;20032;-94
2022/05/29 06:38:51;;;;;;;2.28;0.98;;;11.70;90.50;;;;;;2087873;28;20028;-95
2022/05/29 06:40:12;;;;;;;1.25;0.50;;;11.70;90.50;;;;;;2093424;28;20068;-96
2022/05/29 06:41:33;;;;;;;1.30;0.60;;;11.70;90.50;;;;;;2093215;28;20088;-95
2022/05/29 06:42:53;;;;;;;1.10;0.52;;;11.80;90.50;;;;;;2080561;28;20029;-96
2022/05/29 06:44:12;;;;;;;0.80;0.65;;;11.80;90.50;;;;;;2086549;28;20033;-96
2022/05/29 06:45:34;;;;;;;1.30;0.40;;;11.80;90.50;;;;;;2091191;28;20049;-96
2022/05/29 06:46:53;;;;;;;1.58;0.50;;;11.80;90.50;;;;;;2100226;23;20029;-92
2022/05/29 06:48:12;;;;;;;1.30;0.50;;;11.80;90.50;;;;;;2079989;28;20076;-90
2022/05/29 06:49:31;;;;;;;1.17;0.47;;;11.80;90.50;;;;;;2066348;28;20030;-92
2022/05/29 06:50:51;;;;;;;0.75;0.47;;;11.70;90.50;;;;;;2072941;28;20037;-91
2022/05/29 06:52:11;;;;;;;0.77;0.50;;;11.70;90.60;;;;;;2084472;28;20036;-92
2022/05/29 06:53:31;;;;;;;1.25;0.50;;;11.70;90.60;;;;;;2086837;28;20528;-92
2022/05/29 06:54:50;;;;;;;1.00;0.50;;;11.60;90.70;;;;;;2076156;28;20022;-93
2022/05/29 06:56:10;;;;;;;1.58;0.60;;;11.60;90.70;;;;;;2076285;28;20042;-94
2022/05/29 06:57:43;;;;;;;1.40;0.60;;;11.50;90.80;;;;;;2071678;28;20974;-91
2022/05/29 06:59:05;;;;;;;1.08;0.52;;;11.50;91.20;;;;;;2088283;28;20371;-91
2022/05/29 07:07:01;;;;;;;1.10;0.50;;;11.50;90.90;;;;;;2089596;28;20037;-94
2022/05/29 07:08:21;;;;;;;1.90;0.50;;;11.50;90.90;;;;;;2087481;28;20514;-93
2022/05/29 07:09:40;;;;;;;2.03;0.60;;;11.50;91.00;;;;;;2071819;28;20030;-92
2022/05/29 07:11:09;;;;;;;1.58;0.60;;;11.50;91.00;;;;;;2093071;28;20029;-93
2022/05/29 07:12:31;;;;;;;4.00;0.60;;;11.50;91.10;;;;;;2092601;28;20455;-93
2022/05/29 07:13:50;;;;;;;1.80;0.60;;;11.50;91.00;;;;;;2087375;28;20578;-93
2022/05/29 07:15:11;;;;;;;1.48;0.50;;;11.50;91.00;;;;;;2081131;28;20034;-93
2022/05/29 07:16:34;;;;;;;1.20;0.50;;;11.50;91.10;;;;;;2081593;28;20041;-92
2022/05/29 07:17:53;;;;;;;1.95;0.50;;;11.60;91.10;;;;;;2078048;28;20447;-93
2022/05/29 07:19:14;;;;;;;1.52;0.50;;;11.60;91.10;;;;;;2086360;28;20503;-92
2022/05/29 07:20:35;;;;;;;1.63;0.60;;;11.60;91.10;;;;;;2083071;28;20033;-92
2022/05/29 07:21:57;;;;;;;1.15;0.60;;;11.70;91.10;;;;;;2083913;28;22232;-93
2022/05/29 07:23:16;;;;;;;1.55;0.57;;;11.70;91.10;;;;;;2088412;28;20057;-93
2022/05/29 07:24:36;;;;;;;1.55;0.60;;;11.70;91.00;;;;;;2101214;28;20115;-92
2022/05/29 07:25:56;;;;;;;2.08;0.60;;;11.70;91.00;;;;;;2090011;28;20021;-92
2022/05/29 07:27:15;;;;;;;1.43;0.70;;;11.70;91.00;;;;;;2091849;28;20032;-93
2022/05/29 07:28:35;;;;;;;2.00;0.63;;;11.80;91.00;;;;;;2093372;28;20272;-93
2022/05/29 07:29:54;;;;;;;2.13;0.60;;;11.80;91.00;;;;;;2094154;28;20017;-93
2022/05/29 07:31:13;;;;;;;2.55;0.65;;;11.90;91.00;;;;;;2096310;28;20029;-93
2022/05/29 07:32:33;;;;;;;1.17;0.52;;;12.00;91.00;;;;;;2099722;28;20028;-93
2022/05/29 07:33:52;;;;;;;1.97;0.60;;;11.90;90.90;;;;;;2087843;28;20041;-92